Terminal Aerodrome Forecast
Issued by NWS

Home | Current Version | Previous Version | Graphics & Text | Print | Product List | Glossary On
Versions: 1 2 3 4 5 6 7 8 9 10 11 12 13 14 15 16 17 18 19 20 21 22 23 24 25 26 27 28 29 30 31 32 33 34
000
FTUS43 KLOT 240900 AAB
TAFMDW
TAF AMD
KMDW 240907Z 2409/2506 25008KT P6SM OVC020
     FM241100 29007KT P6SM OVC025
     FM241800 28012KT P6SM SCT025
     FM242300 26007KT P6SM BKN020=

USA.gov is the U.S. government's official web portal to all federal, state and local government web resources and services.